createdAt,value
2023-03-02T00:01:10.733Z,99.90
2023-03-02T00:03:38.849Z,99.90
2023-03-02T00:06:06.272Z,99.90
2023-03-02T00:08:33.572Z,99.90
2023-03-02T00:11:01.380Z,99.90
2023-03-02T00:13:31.899Z,99.90
2023-03-02T00:15:59.241Z,99.90
2023-03-02T00:18:26.560Z,99.90
2023-03-02T00:20:53.903Z,99.90
2023-03-02T00:23:21.254Z,99.90
2023-03-02T00:25:48.583Z,99.90
2023-03-02T00:28:15.887Z,99.90
2023-03-02T00:30:43.220Z,99.90
2023-03-02T00:33:10.631Z,99.90
2023-03-02T00:35:41.242Z,99.90
2023-03-02T00:38:09.022Z,99.90
2023-03-02T00:40:36.454Z,99.90
2023-03-02T00:43:03.956Z,99.90
2023-03-02T00:45:31.383Z,99.90
2023-03-02T00:47:58.934Z,99.90
2023-03-02T00:50:26.368Z,99.90
2023-03-02T00:52:53.789Z,99.90
2023-03-02T00:55:21.101Z,99.90
2023-03-02T00:57:55.167Z,99.90
2023-03-02T01:00:28.622Z,99.90
2023-03-02T01:02:59.111Z,99.90
2023-03-02T01:05:26.731Z,99.90
2023-03-02T01:07:54.147Z,99.90
2023-03-02T01:10:21.479Z,99.90
2023-03-02T01:12:48.810Z,99.90
2023-03-02T01:15:16.159Z,99.90
2023-03-02T01:17:43.996Z,99.90
2023-03-02T01:20:12.193Z,99.90
2023-03-02T01:22:39.524Z,99.90
2023-03-02T01:25:07.316Z,99.90
2023-03-02T01:27:34.608Z,99.90
2023-03-02T01:30:01.955Z,99.90
2023-03-02T01:32:30.937Z,99.90
2023-03-02T01:34:58.295Z,99.90
2023-03-02T01:37:26.043Z,99.90
2023-03-02T01:39:53.419Z,99.90
2023-03-02T01:42:20.755Z,99.90
2023-03-02T01:44:50.170Z,99.90
2023-03-02T01:47:22.070Z,99.90
2023-03-02T01:49:58.908Z,99.90
2023-03-02T01:52:27.826Z,99.90
2023-03-02T01:54:56.550Z,99.90
2023-03-02T01:57:29.450Z,99.90
2023-03-02T02:00:00.166Z,99.90
2023-03-02T02:02:27.556Z,99.90
2023-03-02T02:04:55.016Z,99.90
2023-03-02T02:07:22.489Z,99.90
2023-03-02T02:09:50.996Z,99.90
2023-03-02T02:12:20.352Z,99.90
2023-03-02T02:14:48.033Z,99.90
2023-03-02T02:17:15.584Z,99.90
2023-03-02T02:19:48.663Z,99.90
2023-03-02T02:22:17.421Z,99.90
2023-03-02T02:24:48.715Z,99.90
2023-03-02T02:27:16.105Z,99.90
2023-03-02T02:29:46.238Z,99.90
2023-03-02T02:32:19.916Z,99.90
2023-03-02T02:34:53.591Z,99.90
2023-03-02T02:37:34.060Z,99.90
2023-03-02T02:40:07.252Z,99.90
2023-03-02T02:42:42.078Z,99.90
2023-03-02T02:45:27.625Z,99.90
2023-03-02T02:47:55.344Z,99.90
2023-03-02T02:50:30.198Z,99.90
2023-03-02T02:53:05.762Z,99.90
2023-03-02T02:55:33.949Z,99.90
2023-03-02T02:58:02.590Z,99.90
2023-03-02T03:00:29.911Z,99.90
2023-03-02T03:03:29.337Z,99.90
2023-03-02T03:06:00.309Z,99.90
2023-03-02T03:08:46.107Z,99.90
2023-03-02T03:11:27.624Z,99.90
2023-03-02T03:14:00.129Z,99.90
2023-03-02T03:16:28.804Z,99.90
2023-03-02T03:18:57.643Z,99.90
2023-03-02T03:21:25.437Z,99.90
2023-03-02T03:23:53.694Z,99.90
2023-03-02T03:26:21.220Z,99.90
2023-03-02T03:28:48.756Z,99.90
2023-03-02T03:31:16.520Z,99.90
2023-03-02T03:33:44.181Z,99.90
2023-03-02T03:36:11.690Z,99.90
2023-03-02T03:38:39.213Z,99.90
2023-03-02T03:41:06.596Z,99.90
2023-03-02T03:43:34.785Z,99.90
2023-03-02T03:46:02.194Z,99.90
2023-03-02T03:48:29.511Z,99.90
2023-03-02T03:50:59.519Z,99.90
2023-03-02T03:53:27.476Z,99.90
2023-03-02T03:55:56.935Z,99.90
2023-03-02T03:58:25.149Z,99.90
2023-03-02T04:00:52.991Z,99.90
2023-03-02T04:03:21.382Z,99.90
2023-03-02T04:05:48.881Z,99.90
2023-03-02T04:08:16.346Z,99.90
2023-03-02T04:10:43.757Z,99.90
2023-03-02T04:13:11.646Z,99.90
2023-03-02T04:15:41.698Z,99.90
2023-03-02T04:18:09.208Z,99.90
2023-03-02T04:20:37.144Z,99.90
2023-03-02T04:23:05.262Z,99.90
2023-03-02T04:25:32.580Z,99.90
2023-03-02T04:28:08.559Z,99.90
2023-03-02T04:30:38.569Z,99.90
2023-03-02T04:33:06.097Z,99.90
2023-03-02T04:35:34.965Z,99.90
2023-03-02T04:38:03.066Z,99.90
2023-03-02T04:40:30.463Z,99.90
2023-03-02T04:42:57.719Z,99.90
2023-03-02T04:45:25.027Z,99.90
2023-03-02T04:47:52.305Z,99.90
2023-03-02T04:50:19.644Z,99.90
2023-03-02T04:52:47.150Z,99.90
2023-03-02T04:55:20.075Z,99.90
2023-03-02T04:57:47.436Z,99.90
2023-03-02T05:00:16.551Z,99.90
2023-03-02T05:02:44.133Z,99.90
2023-03-02T05:05:22.764Z,99.90
2023-03-02T05:07:50.763Z,99.90
2023-03-02T05:10:18.778Z,99.90
2023-03-02T05:12:55.786Z,99.90
2023-03-02T05:15:30.622Z,99.90
2023-03-02T05:17:58.053Z,99.90
2023-03-02T05:20:27.579Z,99.90
2023-03-02T05:22:55.956Z,99.90
2023-03-02T05:25:23.532Z,99.90
2023-03-02T05:27:51.008Z,99.90
2023-03-02T05:30:18.600Z,99.90
2023-03-02T05:32:46.189Z,99.90
2023-03-02T05:35:14.265Z,99.90
2023-03-02T05:37:44.543Z,99.90
2023-03-02T05:40:13.760Z,99.90
2023-03-02T05:42:42.198Z,99.90
2023-03-02T05:45:13.704Z,99.90
2023-03-02T05:47:40.979Z,99.90
2023-03-02T05:50:08.759Z,99.90
2023-03-02T05:52:36.094Z,99.90
2023-03-02T05:55:03.526Z,99.90
2023-03-02T05:57:30.905Z,99.90
2023-03-02T05:59:58.639Z,99.90
2023-03-02T06:02:26.088Z,99.90
2023-03-02T06:04:53.435Z,99.90
2023-03-02T06:07:20.735Z,99.90
2023-03-02T06:09:48.376Z,99.90
2023-03-02T06:12:15.773Z,99.90
2023-03-02T06:14:43.142Z,99.90
2023-03-02T06:17:10.629Z,99.90
2023-03-02T06:19:37.929Z,99.90
2023-03-02T06:22:05.302Z,99.90
2023-03-02T06:24:32.884Z,99.90
2023-03-02T06:27:00.402Z,99.90
2023-03-02T06:29:27.694Z,99.90
2023-03-02T06:31:55.210Z,99.90
2023-03-02T06:34:23.083Z,99.90
2023-03-02T06:36:50.906Z,99.90
2023-03-02T06:39:18.309Z,99.90
2023-03-02T06:41:46.486Z,99.90
2023-03-02T06:44:14.343Z,99.90
2023-03-02T06:46:42.184Z,99.90
2023-03-02T06:49:09.794Z,99.90
2023-03-02T06:51:37.449Z,99.90
2023-03-02T06:54:06.929Z,99.90
2023-03-02T06:56:34.955Z,99.90
2023-03-02T06:59:02.485Z,99.90
2023-03-02T07:01:35.907Z,99.90
2023-03-02T07:04:03.796Z,99.90
2023-03-02T07:06:31.327Z,99.90
2023-03-02T07:08:58.590Z,99.90
2023-03-02T07:11:25.886Z,99.90
2023-03-02T07:13:53.239Z,99.90
2023-03-02T07:16:20.612Z,99.90
2023-03-02T07:18:48.014Z,99.90
2023-03-02T07:21:15.362Z,99.90
2023-03-02T07:23:42.925Z,99.90
2023-03-02T07:26:10.298Z,99.90
2023-03-02T07:28:41.891Z,99.90
2023-03-02T07:31:09.539Z,99.90
2023-03-02T07:33:37.528Z,99.90
2023-03-02T07:36:05.931Z,99.90
2023-03-02T07:38:33.500Z,99.90
2023-03-02T07:41:00.817Z,99.90
2023-03-02T07:43:29.331Z,99.90
2023-03-02T07:45:59.707Z,99.90
2023-03-02T07:48:27.202Z,99.90
2023-03-02T07:51:00.948Z,99.90
2023-03-02T07:53:28.563Z,99.90
2023-03-02T07:55:55.916Z,99.90
2023-03-02T07:58:24.197Z,99.90
2023-03-02T08:00:51.510Z,99.90
2023-03-02T08:03:18.834Z,99.90
2023-03-02T08:05:46.160Z,99.90
2023-03-02T08:08:13.527Z,99.90
2023-03-02T08:10:41.295Z,99.90
2023-03-02T08:13:10.944Z,99.90
2023-03-02T08:15:38.382Z,99.90
2023-03-02T08:18:05.773Z,99.90
2023-03-02T08:20:33.088Z,99.90
2023-03-02T08:23:00.412Z,99.90
2023-03-02T08:25:27.707Z,99.90
2023-03-02T08:27:55.083Z,99.90
2023-03-02T08:30:22.436Z,99.90
2023-03-02T08:32:49.931Z,99.90
2023-03-02T08:35:17.492Z,99.90
2023-03-02T08:37:44.811Z,99.90
2023-03-02T08:40:12.508Z,99.90
2023-03-02T08:42:39.880Z,99.90
2023-03-02T08:45:07.806Z,99.90
2023-03-02T08:47:35.132Z,99.90
2023-03-02T08:50:02.523Z,99.90
2023-03-02T08:52:29.809Z,99.90
2023-03-02T08:54:57.121Z,99.90
2023-03-02T08:57:24.495Z,99.90
2023-03-02T08:59:52.660Z,99.90
2023-03-02T09:02:19.995Z,99.90
2023-03-02T09:04:47.441Z,99.90
2023-03-02T09:07:17.421Z,99.90
2023-03-02T09:09:44.857Z,99.90
2023-03-02T09:12:12.252Z,99.90
2023-03-02T09:14:39.544Z,99.90
2023-03-02T09:17:06.998Z,99.90
2023-03-02T09:19:43.981Z,99.90
2023-03-02T09:22:11.949Z,99.90
2023-03-02T09:24:39.275Z,99.90
2023-03-02T09:27:06.691Z,99.90
2023-03-02T09:29:33.999Z,99.90
2023-03-02T09:32:01.487Z,99.90
2023-03-02T09:34:29.470Z,99.90
2023-03-02T09:36:56.845Z,99.90
2023-03-02T09:39:24.194Z,99.90
2023-03-02T09:42:13.621Z,99.90
2023-03-02T09:44:43.799Z,99.90
2023-03-02T09:47:37.754Z,99.90
2023-03-02T09:50:15.049Z,99.90
2023-03-02T09:53:07.639Z,99.90
2023-03-02T09:55:36.162Z,99.90
2023-03-02T09:58:08.951Z,99.90
2023-03-02T10:00:37.126Z,99.90
2023-03-02T10:03:39.191Z,99.90
2023-03-02T10:06:06.616Z,99.90
2023-03-02T10:08:35.029Z,99.90
2023-03-02T10:11:12.739Z,99.90
2023-03-02T10:13:58.438Z,99.90
2023-03-02T10:16:38.138Z,99.90
2023-03-02T10:19:47.975Z,99.90
2023-03-02T10:22:50.894Z,99.90
2023-03-02T10:25:35.963Z,99.90
2023-03-02T10:28:17.660Z,99.90
2023-03-02T10:30:45.788Z,99.90
2023-03-02T10:33:19.939Z,99.90
2023-03-02T10:35:51.941Z,99.90
2023-03-02T10:38:24.205Z,99.90
2023-03-02T10:41:02.351Z,99.90
2023-03-02T10:43:39.626Z,99.90
2023-03-02T10:46:08.660Z,99.90
2023-03-02T10:48:49.856Z,99.90
2023-03-02T10:51:35.293Z,99.90
2023-03-02T10:54:13.303Z,99.90
2023-03-02T10:56:47.408Z,99.90
2023-03-02T10:59:27.101Z,99.90
2023-03-02T11:02:02.744Z,99.90
2023-03-02T11:04:30.827Z,99.90
2023-03-02T11:07:08.929Z,99.90
2023-03-02T11:09:36.301Z,99.90
2023-03-02T11:12:03.820Z,99.90
2023-03-02T11:14:31.194Z,99.90
2023-03-02T11:16:58.568Z,99.90
2023-03-02T11:19:35.168Z,99.90
2023-03-02T11:22:30.642Z,99.90
2023-03-02T11:24:58.430Z,99.50
2023-03-02T11:27:28.066Z,99.20
2023-03-02T11:30:01.265Z,99.70
2023-03-02T11:32:53.663Z,99.00
2023-03-02T11:35:34.243Z,99.00
2023-03-02T11:38:13.470Z,98.40
2023-03-02T11:40:54.216Z,98.30
2023-03-02T11:43:21.567Z,98.10
2023-03-02T11:45:59.761Z,98.00
2023-03-02T11:48:34.470Z,97.90
2023-03-02T11:51:06.942Z,98.00
2023-03-02T11:53:41.730Z,97.70
2023-03-02T11:56:09.103Z,97.70
2023-03-02T11:58:36.411Z,96.80
2023-03-02T12:01:03.836Z,96.80
2023-03-02T12:03:31.205Z,96.40
2023-03-02T12:06:15.026Z,96.30
2023-03-02T12:08:43.931Z,96.50
2023-03-02T12:11:17.604Z,95.90
2023-03-02T12:13:46.411Z,95.60
2023-03-02T12:16:34.253Z,95.10
2023-03-02T12:19:17.977Z,94.80
2023-03-02T12:22:02.808Z,94.60
2023-03-02T12:24:34.684Z,94.20
2023-03-02T12:27:07.563Z,93.70
2023-03-02T12:29:42.416Z,93.30
2023-03-02T12:32:30.568Z,93.50
2023-03-02T12:35:00.687Z,93.20
2023-03-02T12:37:33.641Z,93.40
2023-03-02T12:40:15.438Z,92.60
2023-03-02T12:43:16.941Z,92.40
2023-03-02T12:45:52.998Z,92.10
2023-03-02T12:48:37.299Z,91.40
2023-03-02T12:51:05.225Z,91.90
2023-03-02T12:53:32.679Z,91.40
2023-03-02T12:56:00.626Z,91.10
2023-03-02T12:58:28.716Z,89.70
2023-03-02T13:00:58.519Z,90.20
2023-03-02T13:03:27.028Z,89.40
2023-03-02T13:06:04.973Z,88.70
2023-03-02T13:08:32.495Z,89.50
2023-03-02T13:11:01.468Z,90.10
2023-03-02T13:13:35.592Z,89.60
2023-03-02T13:16:05.400Z,88.50
2023-03-02T13:18:39.241Z,88.80
2023-03-02T13:21:06.570Z,89.20
2023-03-02T13:23:34.145Z,88.30
2023-03-02T13:26:02.908Z,87.20
2023-03-02T13:28:34.538Z,86.70
2023-03-02T13:31:18.110Z,87.00
2023-03-02T13:33:46.370Z,85.80
2023-03-02T13:36:30.933Z,85.60
2023-03-02T13:38:59.354Z,84.40
2023-03-02T13:41:31.358Z,83.80
2023-03-02T13:43:59.239Z,83.20
2023-03-02T13:46:36.697Z,82.10
2023-03-02T13:49:11.026Z,82.70
2023-03-02T13:51:43.813Z,82.80
2023-03-02T13:54:22.199Z,82.60
2023-03-02T13:56:51.198Z,81.80
2023-03-02T13:59:19.260Z,82.90
2023-03-02T14:01:46.706Z,82.30
2023-03-02T14:04:15.158Z,81.00
2023-03-02T14:06:42.678Z,80.70
2023-03-02T14:09:10.205Z,82.00
2023-03-02T14:11:39.078Z,81.20
2023-03-02T14:14:06.460Z,80.40
2023-03-02T14:16:37.121Z,80.60
2023-03-02T14:19:04.449Z,80.30
2023-03-02T14:21:32.394Z,80.30
2023-03-02T14:23:59.989Z,81.10
2023-03-02T14:26:46.370Z,81.40
2023-03-02T14:29:29.147Z,81.40
2023-03-02T14:31:57.687Z,81.30
2023-03-02T14:34:25.046Z,81.00
2023-03-02T14:36:54.078Z,79.30
2023-03-02T14:39:37.068Z,79.90
2023-03-02T14:42:05.727Z,80.40
2023-03-02T14:44:33.166Z,80.40
2023-03-02T14:47:00.494Z,80.60
2023-03-02T14:49:27.824Z,83.30
2023-03-02T14:51:58.705Z,83.90
2023-03-02T14:54:26.167Z,84.40
2023-03-02T14:56:53.593Z,85.00
2023-03-02T14:59:21.000Z,84.60
2023-03-02T15:01:48.405Z,86.40
2023-03-02T15:04:15.930Z,86.60
2023-03-02T15:06:43.385Z,87.60
2023-03-02T15:09:11.342Z,87.20
2023-03-02T15:11:38.763Z,88.60
2023-03-02T15:14:06.165Z,87.80
2023-03-02T15:16:33.562Z,88.00
2023-03-02T15:19:01.444Z,88.50
2023-03-02T15:21:29.085Z,88.60
2023-03-02T15:23:56.462Z,89.20
2023-03-02T15:26:23.863Z,89.70
2023-03-02T15:28:51.786Z,90.10
2023-03-02T15:31:19.333Z,90.30
2023-03-02T15:33:46.890Z,90.40
2023-03-02T15:36:14.512Z,90.60
2023-03-02T15:38:41.881Z,91.00
2023-03-02T15:41:12.311Z,91.40
2023-03-02T15:43:39.730Z,91.60
2023-03-02T15:46:09.242Z,91.80
2023-03-02T15:48:36.996Z,92.30
2023-03-02T15:51:05.958Z,92.80
2023-03-02T15:53:36.772Z,93.00
2023-03-02T15:56:06.685Z,93.10
2023-03-02T15:58:34.699Z,93.10
2023-03-02T16:01:10.006Z,93.70
2023-03-02T16:03:38.046Z,94.00
2023-03-02T16:06:05.702Z,94.40
2023-03-02T16:08:33.010Z,94.40
2023-03-02T16:11:01.922Z,94.60
2023-03-02T16:13:30.419Z,94.80
2023-03-02T16:16:00.236Z,95.10
2023-03-02T16:18:27.563Z,95.30
2023-03-02T16:20:55.112Z,95.50
2023-03-02T16:23:22.538Z,95.80
2023-03-02T16:25:50.189Z,96.00
2023-03-02T16:28:18.065Z,96.10
2023-03-02T16:30:45.658Z,96.40
2023-03-02T16:33:15.321Z,96.60
2023-03-02T16:35:42.769Z,96.80
2023-03-02T16:38:10.295Z,97.20
2023-03-02T16:40:40.044Z,97.10
2023-03-02T16:43:09.012Z,97.70
2023-03-02T16:45:36.519Z,97.60
2023-03-02T16:48:04.830Z,97.90
2023-03-02T16:50:32.569Z,98.10
2023-03-02T16:52:59.938Z,98.70
2023-03-02T16:55:27.462Z,98.80
2023-03-02T16:57:54.911Z,99.00
2023-03-02T17:00:22.983Z,99.40
2023-03-02T17:02:50.663Z,99.70
2023-03-02T17:05:18.964Z,99.70
2023-03-02T17:07:46.533Z,99.60
2023-03-02T17:10:16.083Z,99.40
2023-03-02T17:12:43.468Z,99.40
2023-03-02T17:15:14.375Z,99.70
2023-03-02T17:17:41.807Z,99.80
2023-03-02T17:20:11.222Z,99.90
2023-03-02T17:22:38.910Z,99.90
2023-03-02T17:25:06.525Z,99.90
2023-03-02T17:27:33.902Z,99.90
2023-03-02T17:30:01.326Z,99.90
2023-03-02T17:32:28.836Z,99.90
2023-03-02T17:34:56.209Z,99.90
2023-03-02T17:37:25.751Z,99.90
2023-03-02T17:39:53.211Z,99.90
2023-03-02T17:42:20.611Z,99.90
2023-03-02T17:44:47.921Z,99.90
2023-03-02T17:47:16.294Z,99.90
2023-03-02T17:49:45.265Z,99.90
2023-03-02T17:52:13.616Z,99.90
2023-03-02T17:54:41.220Z,99.90
2023-03-02T17:57:08.857Z,99.90
2023-03-02T17:59:36.272Z,99.90
2023-03-02T18:02:03.716Z,99.90
2023-03-02T18:04:31.045Z,99.90
2023-03-02T18:06:58.748Z,99.90
2023-03-02T18:09:26.128Z,99.90
2023-03-02T18:11:53.622Z,99.90
2023-03-02T18:14:21.042Z,99.90
2023-03-02T18:16:48.443Z,99.90
2023-03-02T18:19:15.820Z,99.90
2023-03-02T18:21:43.216Z,99.90
2023-03-02T18:24:10.595Z,99.90
2023-03-02T18:26:38.071Z,99.90
2023-03-02T18:29:05.634Z,99.90
2023-03-02T18:31:34.250Z,99.90
2023-03-02T18:34:02.602Z,99.90
2023-03-02T18:36:30.095Z,99.90
2023-03-02T18:38:57.498Z,99.90
2023-03-02T18:41:24.874Z,99.90
2023-03-02T18:43:52.287Z,99.90
2023-03-02T18:46:23.466Z,99.90
2023-03-02T18:48:51.296Z,99.90
2023-03-02T18:51:19.379Z,99.90
2023-03-02T18:53:47.026Z,99.90
2023-03-02T18:56:14.364Z,99.90
2023-03-02T18:58:41.797Z,99.90
2023-03-02T19:01:09.301Z,99.90
2023-03-02T19:03:38.612Z,99.90
2023-03-02T19:06:07.294Z,99.90
2023-03-02T19:08:35.508Z,99.90
2023-03-02T19:11:03.230Z,99.90
2023-03-02T19:13:30.737Z,99.90
2023-03-02T19:15:58.097Z,99.90
2023-03-02T19:18:25.775Z,99.90
2023-03-02T19:20:54.375Z,99.90
2023-03-02T19:23:21.852Z,99.90
2023-03-02T19:25:49.362Z,99.90
2023-03-02T19:28:16.818Z,99.90
2023-03-02T19:30:44.153Z,99.90
2023-03-02T19:33:11.535Z,99.90
2023-03-02T19:35:39.125Z,99.90
2023-03-02T19:38:07.135Z,99.90
2023-03-02T19:40:34.664Z,99.90
2023-03-02T19:43:02.218Z,99.90
2023-03-02T19:45:32.419Z,99.90
2023-03-02T19:48:00.164Z,99.90
2023-03-02T19:50:28.310Z,99.90
2023-03-02T19:52:56.296Z,99.90
2023-03-02T19:55:24.296Z,99.90
2023-03-02T19:57:56.624Z,99.90
2023-03-02T20:00:24.380Z,99.90
2023-03-02T20:02:51.732Z,99.90
2023-03-02T20:05:19.159Z,99.90
2023-03-02T20:07:46.498Z,99.90
2023-03-02T20:10:31.100Z,99.90
2023-03-02T20:12:59.732Z,99.90
2023-03-02T20:15:28.303Z,99.90
2023-03-02T20:17:55.719Z,99.90
2023-03-02T20:20:24.751Z,99.90
2023-03-02T20:22:52.217Z,99.90
2023-03-02T20:25:20.315Z,99.90
2023-03-02T20:27:51.907Z,99.90
2023-03-02T20:30:28.675Z,99.90
2023-03-02T20:32:56.468Z,99.90
2023-03-02T20:35:24.009Z,99.90
2023-03-02T20:37:52.366Z,99.90
2023-03-02T20:40:20.302Z,99.90
2023-03-02T20:42:47.670Z,99.90
2023-03-02T20:45:15.103Z,99.90
2023-03-02T20:47:42.575Z,99.90
2023-03-02T20:50:11.227Z,99.90
2023-03-02T20:52:38.595Z,99.90
2023-03-02T20:55:06.536Z,99.90
2023-03-02T20:57:33.979Z,99.90
2023-03-02T21:00:01.425Z,99.90
2023-03-02T21:02:28.822Z,99.90
2023-03-02T21:04:56.247Z,99.90
2023-03-02T21:07:23.836Z,99.90
2023-03-02T21:09:51.238Z,99.90
2023-03-02T21:12:18.791Z,99.90
2023-03-02T21:14:46.196Z,99.90
2023-03-02T21:17:13.552Z,99.90
2023-03-02T21:19:40.865Z,99.90
2023-03-02T21:22:08.190Z,99.90
2023-03-02T21:24:35.603Z,99.90
2023-03-02T21:27:02.983Z,99.90
2023-03-02T21:29:30.675Z,99.90
2023-03-02T21:31:58.219Z,99.90
2023-03-02T21:34:25.581Z,99.90
2023-03-02T21:36:53.774Z,99.90
2023-03-02T21:39:23.560Z,99.90
2023-03-02T21:41:51.273Z,99.90
2023-03-02T21:44:19.050Z,99.90
2023-03-02T21:46:46.595Z,99.90
2023-03-02T21:49:18.240Z,99.90
2023-03-02T21:51:47.111Z,99.90
2023-03-02T21:54:16.122Z,99.90
2023-03-02T21:56:43.690Z,99.90
2023-03-02T21:59:11.118Z,99.90
2023-03-02T22:01:38.667Z,99.90
2023-03-02T22:04:06.038Z,99.90
2023-03-02T22:06:33.975Z,99.90
2023-03-02T22:09:01.671Z,99.90
2023-03-02T22:11:31.163Z,99.90
2023-03-02T22:14:00.571Z,99.90
2023-03-02T22:16:33.191Z,99.90
2023-03-02T22:19:00.681Z,99.90
2023-03-02T22:21:38.133Z,99.90
2023-03-02T22:24:08.592Z,99.90
2023-03-02T22:26:37.982Z,99.90
2023-03-02T22:29:12.970Z,99.90
2023-03-02T22:31:46.229Z,99.90
2023-03-02T22:34:15.572Z,99.90
2023-03-02T22:36:44.220Z,99.90
2023-03-02T22:39:15.515Z,99.90
2023-03-02T22:41:42.914Z,99.90
2023-03-02T22:44:11.726Z,99.90
2023-03-02T22:46:39.880Z,99.90
2023-03-02T22:49:16.895Z,99.90
2023-03-02T22:51:44.973Z,99.90
2023-03-02T22:54:27.228Z,99.90
2023-03-02T22:56:56.966Z,99.90
2023-03-02T22:59:25.888Z,99.90
2023-03-02T23:01:54.182Z,99.90
2023-03-02T23:04:27.257Z,99.90
2023-03-02T23:07:02.673Z,99.90
2023-03-02T23:09:32.009Z,99.90
2023-03-02T23:12:01.807Z,99.90
2023-03-02T23:14:39.367Z,99.90
2023-03-02T23:17:14.155Z,99.90
2023-03-02T23:19:41.635Z,99.90
2023-03-02T23:22:09.024Z,99.90
2023-03-02T23:24:36.810Z,99.90
2023-03-02T23:27:04.320Z,99.90
2023-03-02T23:29:32.180Z,99.90
2023-03-02T23:31:59.788Z,99.90
2023-03-02T23:34:31.005Z,99.90
2023-03-02T23:36:59.037Z,99.90
2023-03-02T23:39:26.574Z,99.90
2023-03-02T23:41:54.068Z,99.90
2023-03-02T23:44:21.497Z,99.90
2023-03-02T23:46:49.300Z,99.90
2023-03-02T23:49:16.885Z,99.90
2023-03-02T23:51:44.631Z,99.90
2023-03-02T23:54:12.062Z,99.90
2023-03-02T23:56:39.554Z,99.90
2023-03-02T23:59:06.903Z,99.90
